N40VK KMTP-KMTP

Flight info

Callsign N40VK
Flight time N/A
Altitude 3500
Route VFR BOSTON AREA
Aircraft DA40/L-V/N

Departure

Time 2026-04-25 12:28
Airport Montauk Airport (KMTP)

Arrival

Time N/A
Airport Montauk Airport (KMTP)
Time Latitude Longitude Altitude Speed Heading
2026-04-25 12:15 41.07334 -71.92424 4 ft 0 kts 227°
2026-04-25 12:26 41.07333 -71.92429 4 ft 3 kts 263°
2026-04-25 12:26 41.07336 -71.92436 4 ft 0 kts 321°
2026-04-25 12:26 41.07344 -71.92445 3 ft 7 kts 316°
2026-04-25 12:26 41.07389 -71.92443 3 ft 4 kts 47°
2026-04-25 12:27 41.07392 -71.92439 3 ft 0 kts 47°
2026-04-25 12:27 41.07422 -71.92394 3 ft 29 kts 46°
2026-04-25 12:27 41.07681 -71.92035 27 ft 72 kts 49°
2026-04-25 12:28 41.08033 -71.91529 234 ft 77 kts 48°
2026-04-25 12:28 41.08436 -71.91065 495 ft 77 kts 42°
2026-04-25 12:28 41.08895 -71.90663 741 ft 82 kts 37°
2026-04-25 12:28 41.09331 -71.90187 983 ft 81 kts 45°
2026-04-25 12:29 41.09750 -71.89701 1231 ft 77 kts 46°
2026-04-25 12:29 41.10141 -71.89270 1492 ft 74 kts 46°
2026-04-25 12:29 41.10540 -71.88828 1725 ft 75 kts 45°
2026-04-25 12:29 41.10933 -71.88380 1927 ft 75 kts 46°
2026-04-25 12:30 41.11333 -71.87929 2133 ft 76 kts 46°
2026-04-25 12:30 41.11729 -71.87470 2351 ft 75 kts 46°
2026-04-25 12:30 41.12112 -71.87012 2574 ft 74 kts 46°
2026-04-25 12:30 41.12490 -71.86551 2783 ft 73 kts 46°
2026-04-25 12:31 41.12858 -71.86096 2970 ft 74 kts 45°
2026-04-25 12:31 41.13230 -71.85612 3166 ft 75 kts 45°
2026-04-25 12:31 41.13604 -71.85095 3338 ft 79 kts 46°
2026-04-25 12:31 41.13971 -71.84570 3556 ft 76 kts 46°
2026-04-25 12:32 41.14327 -71.84034 3737 ft 77 kts 45°
2026-04-25 12:32 41.14670 -71.83483 3917 ft 78 kts 46°
2026-04-25 12:32 41.15017 -71.82909 4096 ft 80 kts 47°
2026-04-25 12:32 41.15366 -71.82317 4261 ft 82 kts 46°
2026-04-25 12:33 41.15734 -71.81733 4440 ft 81 kts 30°
2026-04-25 12:33 41.16249 -71.81599 4609 ft 78 kts 341°
2026-04-25 12:33 41.16763 -71.81810 4813 ft 77 kts 340°
2026-04-25 12:33 41.17284 -71.82014 4994 ft 79 kts 345°
2026-04-25 12:34 41.17832 -71.81956 5181 ft 82 kts 17°
2026-04-25 12:34 41.18351 -71.81654 5369 ft 82 kts 17°
2026-04-25 12:34 41.18866 -71.81333 5553 ft 81 kts 18°
2026-04-25 12:34 41.19031 -71.81227 5613 ft 81 kts 18°
2026-04-25 12:35 41.19875 -71.80673 5920 ft 80 kts 19°
2026-04-25 12:35 41.20366 -71.80342 6101 ft 80 kts 19°
2026-04-25 12:35 41.20861 -71.80005 6277 ft 79 kts 19°
2026-04-25 12:35 41.21349 -71.79670 6457 ft 79 kts 19°
2026-04-25 12:36 41.21832 -71.79337 6619 ft 78 kts 19°
2026-04-25 12:36 41.22318 -71.79001 6763 ft 79 kts 19°
2026-04-25 12:36 41.22805 -71.78664 6918 ft 79 kts 18°
2026-04-25 12:36 41.23292 -71.78327 7069 ft 79 kts 18°
2026-04-25 12:37 41.23781 -71.77988 7223 ft 79 kts 18°
2026-04-25 12:37 41.24266 -71.77652 7372 ft 80 kts 18°
2026-04-25 12:37 41.24758 -71.77310 7517 ft 81 kts 18°
2026-04-25 12:37 41.25222 -71.76867 7664 ft 83 kts 26°
2026-04-25 12:38 41.25681 -71.76399 7807 ft 83 kts 26°
2026-04-25 12:38 41.26139 -71.75927 7951 ft 83 kts 26°
2026-04-25 12:38 41.26599 -71.75449 8091 ft 84 kts 26°
2026-04-25 12:38 41.27060 -71.74965 8234 ft 85 kts 26°
2026-04-25 12:39 41.27520 -71.74477 8382 ft 85 kts 26°
2026-04-25 12:39 41.27979 -71.73982 8523 ft 85 kts 26°
2026-04-25 12:39 41.28283 -71.73652 8618 ft 85 kts 26°
2026-04-25 12:39 41.28900 -71.72980 8803 ft 86 kts 26°
2026-04-25 12:40 41.29357 -71.72479 8940 ft 86 kts 26°
2026-04-25 12:40 41.29822 -71.71968 9076 ft 87 kts 26°
2026-04-25 12:40 41.30137 -71.71619 9164 ft 87 kts 26°
2026-04-25 12:40 41.30596 -71.71106 9300 ft 87 kts 26°
2026-04-25 12:41 41.31061 -71.70583 9434 ft 88 kts 26°
2026-04-25 12:41 41.31527 -71.70056 9566 ft 88 kts 26°
2026-04-25 12:41 41.31996 -71.69524 9669 ft 91 kts 26°
2026-04-25 12:41 41.32514 -71.68957 9674 ft 101 kts 26°
2026-04-25 12:42 41.33084 -71.68358 9677 ft 108 kts 26°
2026-04-25 12:42 41.33483 -71.67947 9675 ft 111 kts 26°
2026-04-25 12:42 41.34323 -71.67097 9676 ft 115 kts 26°
2026-04-25 12:42 41.34968 -71.66449 9675 ft 116 kts 26°
2026-04-25 12:43 41.35622 -71.65797 9631 ft 121 kts 26°
2026-04-25 12:43 41.36324 -71.65115 9500 ft 128 kts 26°
2026-04-25 12:43 41.37719 -71.63768 9487 ft 122 kts 26°
2026-04-25 12:44 41.38402 -71.63102 9487 ft 121 kts 26°
2026-04-25 12:44 41.39084 -71.62440 9488 ft 121 kts 26°
2026-04-25 12:44 41.40437 -71.61126 9485 ft 119 kts 26°
2026-04-25 12:45 41.41106 -71.60473 9485 ft 119 kts 26°
2026-04-25 12:45 41.41774 -71.59820 9486 ft 119 kts 26°
2026-04-25 12:45 41.43105 -71.58516 9484 ft 119 kts 26°
2026-04-25 12:46 41.43771 -71.57862 9485 ft 119 kts 26°
2026-04-25 12:46 41.44437 -71.57209 9485 ft 119 kts 26°
2026-04-25 12:46 41.45105 -71.56557 9484 ft 119 kts 26°
2026-04-25 12:46 41.45774 -71.55903 9486 ft 119 kts 26°
2026-04-25 12:47 41.46442 -71.55251 9484 ft 119 kts 26°
2026-04-25 12:47 41.47109 -71.54600 9480 ft 118 kts 26°
2026-04-25 12:47 41.47773 -71.53950 9480 ft 118 kts 26°
2026-04-25 12:47 41.48439 -71.53299 9484 ft 119 kts 26°
2026-04-25 12:48 41.49110 -71.52644 9487 ft 120 kts 26°
2026-04-25 12:48 41.49788 -71.51983 9485 ft 120 kts 26°
2026-04-25 12:48 41.50452 -71.51336 9487 ft 119 kts 26°
2026-04-25 12:48 41.51122 -71.50683 9489 ft 119 kts 26°
2026-04-25 12:49 41.51795 -71.50041 9484 ft 119 kts 26°
2026-04-25 12:49 41.52469 -71.49406 9485 ft 118 kts 26°
2026-04-25 12:49 41.53143 -71.48769 9486 ft 119 kts 26°
2026-04-25 12:49 41.53816 -71.48132 9485 ft 118 kts 26°
2026-04-25 12:50 41.54489 -71.47496 9485 ft 118 kts 26°
2026-04-25 12:50 41.55159 -71.46868 9482 ft 119 kts 26°
2026-04-25 12:50 41.55836 -71.46230 9484 ft 119 kts 26°
2026-04-25 12:50 41.56514 -71.45592 9484 ft 119 kts 26°
2026-04-25 12:51 41.57191 -71.44954 9484 ft 119 kts 26°
2026-04-25 12:51 41.57870 -71.44315 9485 ft 119 kts 26°
2026-04-25 12:51 41.58545 -71.43678 9473 ft 118 kts 26°
2026-04-25 12:51 41.59219 -71.43044 9475 ft 119 kts 26°
2026-04-25 12:52 41.59901 -71.42404 9477 ft 120 kts 26°
2026-04-25 12:52 41.60574 -71.41774 9477 ft 119 kts 26°
2026-04-25 12:52 41.61256 -71.41136 9476 ft 119 kts 26°
2026-04-25 12:52 41.61938 -71.40498 9477 ft 120 kts 26°
2026-04-25 12:53 41.62620 -71.39861 9477 ft 119 kts 26°
2026-04-25 12:53 41.63298 -71.39225 9475 ft 119 kts 26°
2026-04-25 12:53 41.63974 -71.38590 9476 ft 118 kts 26°
2026-04-25 12:53 41.64649 -71.37957 9476 ft 118 kts 26°
2026-04-25 12:54 41.65323 -71.37324 9475 ft 118 kts 26°
2026-04-25 12:54 41.65986 -71.36701 9477 ft 118 kts 26°
2026-04-25 12:54 41.66658 -71.36071 9494 ft 118 kts 26°
2026-04-25 12:54 41.67331 -71.35440 9494 ft 118 kts 26°
2026-04-25 12:55 41.68003 -71.34809 9491 ft 118 kts 26°
2026-04-25 12:55 41.68078 -71.34738 9491 ft 118 kts 26°
2026-04-25 12:55 41.68703 -71.34152 9491 ft 118 kts 26°
2026-04-25 12:55 41.69377 -71.33525 9497 ft 118 kts 26°
2026-04-25 12:56 41.70051 -71.32908 9497 ft 117 kts 26°
2026-04-25 12:56 41.70726 -71.32292 9497 ft 117 kts 26°
2026-04-25 12:56 41.71402 -71.31675 9497 ft 118 kts 26°
2026-04-25 12:56 41.72078 -71.31058 9497 ft 118 kts 26°
2026-04-25 12:57 41.72756 -71.30440 9496 ft 118 kts 26°
2026-04-25 12:57 41.73438 -71.29818 9494 ft 118 kts 26°
2026-04-25 12:57 41.74117 -71.29199 9493 ft 118 kts 26°
2026-04-25 12:57 41.74795 -71.28584 9422 ft 123 kts 26°
2026-04-25 12:58 41.75524 -71.27934 9289 ft 129 kts 26°
2026-04-25 12:58 41.76285 -71.27266 9153 ft 132 kts 26°
2026-04-25 12:58 41.77061 -71.26595 9021 ft 134 kts 26°
2026-04-25 12:58 41.77848 -71.25920 8887 ft 135 kts 26°
2026-04-25 12:59 41.78644 -71.25241 8760 ft 136 kts 26°
2026-04-25 12:59 41.79451 -71.24558 8623 ft 137 kts 26°
2026-04-25 12:59 41.80255 -71.23885 8493 ft 136 kts 26°
2026-04-25 12:59 41.81057 -71.23215 8361 ft 136 kts 26°
2026-04-25 13:00 41.81850 -71.22555 8239 ft 136 kts 26°
2026-04-25 13:00 41.82393 -71.22103 8149 ft 136 kts 26°
2026-04-25 13:00 41.83458 -71.21221 7979 ft 135 kts 26°
2026-04-25 13:00 41.84260 -71.20562 7853 ft 135 kts 26°
2026-04-25 13:01 41.85066 -71.19904 7729 ft 135 kts 26°
2026-04-25 13:01 41.85866 -71.19258 7607 ft 136 kts 26°
2026-04-25 13:01 41.86679 -71.18609 7494 ft 136 kts 26°
2026-04-25 13:01 41.87474 -71.17990 7491 ft 128 kts 26°
2026-04-25 13:02 41.88232 -71.17402 7493 ft 124 kts 26°
2026-04-25 13:02 41.88968 -71.16831 7494 ft 121 kts 26°
2026-04-25 13:02 41.89691 -71.16268 7494 ft 120 kts 26°
2026-04-25 13:02 41.90412 -71.15706 7494 ft 119 kts 26°
2026-04-25 13:03 41.91120 -71.15154 7495 ft 119 kts 26°
2026-04-25 13:03 41.91838 -71.14594 7496 ft 119 kts 26°
2026-04-25 13:03 41.92557 -71.14034 7494 ft 119 kts 26°
2026-04-25 13:03 41.93276 -71.13472 7495 ft 120 kts 26°
2026-04-25 13:04 41.93999 -71.12913 7496 ft 120 kts 26°
2026-04-25 13:04 41.94723 -71.12344 7499 ft 121 kts 26°
2026-04-25 13:04 41.95457 -71.11768 7455 ft 124 kts 26°
2026-04-25 13:04 41.96200 -71.11181 7439 ft 122 kts 27°
2026-04-25 13:05 41.96917 -71.10580 7450 ft 120 kts 28°
2026-04-25 13:05 41.97641 -71.10030 7446 ft 119 kts 22°
2026-04-25 13:05 41.98391 -71.09571 7461 ft 117 kts 21°
2026-04-25 13:05 41.99113 -71.09120 7485 ft 116 kts 21°
2026-04-25 13:06 41.99852 -71.08657 7487 ft 117 kts 21°
2026-04-25 13:06 42.00594 -71.08195 7487 ft 117 kts 21°
2026-04-25 13:06 42.01340 -71.07729 7487 ft 119 kts 21°
2026-04-25 13:06 42.02133 -71.07397 7480 ft 120 kts 11°
2026-04-25 13:07 42.02937 -71.07128 7482 ft 118 kts 11°
2026-04-25 13:07 42.03730 -71.06867 7473 ft 119 kts 11°
2026-04-25 13:07 42.04531 -71.06602 7483 ft 118 kts 11°
2026-04-25 13:07 42.05328 -71.06345 7484 ft 118 kts 11°
2026-04-25 13:08 42.06133 -71.06093 7490 ft 120 kts 11°
2026-04-25 13:08 42.06951 -71.05837 7485 ft 121 kts 11°
2026-04-25 13:08 42.07766 -71.05583 7483 ft 119 kts 11°
2026-04-25 13:08 42.08569 -71.05331 7483 ft 117 kts 11°
2026-04-25 13:09 42.09371 -71.05078 7487 ft 119 kts 11°
2026-04-25 13:09 42.10169 -71.04827 7486 ft 120 kts 11°
2026-04-25 13:09 42.10978 -71.04573 7482 ft 119 kts 11°
2026-04-25 13:09 42.11780 -71.04320 7484 ft 118 kts 11°
2026-04-25 13:10 42.12582 -71.04067 7483 ft 119 kts 11°
2026-04-25 13:10 42.13390 -71.03813 7483 ft 120 kts 11°
2026-04-25 13:10 42.14204 -71.03559 7481 ft 120 kts 11°
2026-04-25 13:10 42.15012 -71.03306 7477 ft 119 kts 11°
2026-04-25 13:11 42.15813 -71.03053 7484 ft 118 kts 11°
2026-04-25 13:11 42.16611 -71.02801 7483 ft 118 kts 11°
2026-04-25 13:11 42.17398 -71.02551 7482 ft 117 kts 11°
2026-04-25 13:11 42.18200 -71.02298 7476 ft 119 kts 11°
2026-04-25 13:12 42.19007 -71.02045 7488 ft 119 kts 11°
2026-04-25 13:12 42.19809 -71.01791 7489 ft 118 kts 11°
2026-04-25 13:12 42.20614 -71.01537 7476 ft 118 kts 11°
2026-04-25 13:12 42.21155 -71.01367 7487 ft 118 kts 11°
2026-04-25 13:13 42.22211 -71.01033 7487 ft 118 kts 11°
2026-04-25 13:13 42.23009 -71.00780 7489 ft 118 kts 11°
2026-04-25 13:13 42.23815 -71.00527 7504 ft 120 kts 11°
2026-04-25 13:13 42.24637 -71.00276 7505 ft 122 kts 11°
2026-04-25 13:14 42.25468 -71.00024 7503 ft 123 kts 11°
2026-04-25 13:14 42.26298 -70.99772 7499 ft 121 kts 11°
2026-04-25 13:14 42.27112 -70.99524 7502 ft 116 kts 11°
2026-04-25 13:14 42.27873 -70.99290 7501 ft 109 kts 11°
2026-04-25 13:15 42.28594 -70.99067 7493 ft 104 kts 11°
2026-04-25 13:15 42.29292 -70.98849 7499 ft 101 kts 11°
2026-04-25 13:15 42.29963 -70.98639 7498 ft 100 kts 11°
2026-04-25 13:15 42.30635 -70.98428 7498 ft 98 kts 11°
2026-04-25 13:16 42.31300 -70.98220 7499 ft 98 kts 11°
2026-04-25 13:16 42.31961 -70.98011 7492 ft 97 kts 11°
2026-04-25 13:16 42.32619 -70.97803 7498 ft 97 kts 11°
2026-04-25 13:16 42.33275 -70.97596 7498 ft 97 kts 11°
2026-04-25 13:17 42.33933 -70.97388 7498 ft 97 kts 11°
2026-04-25 13:17 42.34588 -70.97180 7498 ft 97 kts 11°
2026-04-25 13:17 42.35234 -70.96976 7498 ft 96 kts 11°
2026-04-25 13:17 42.35889 -70.96769 7502 ft 97 kts 11°
2026-04-25 13:18 42.36551 -70.96558 7496 ft 98 kts 11°
2026-04-25 13:18 42.37212 -70.96348 7496 ft 97 kts 11°
2026-04-25 13:18 42.37872 -70.96138 7496 ft 97 kts 11°
2026-04-25 13:18 42.38529 -70.95928 7496 ft 97 kts 11°
2026-04-25 13:19 42.39186 -70.95719 7497 ft 97 kts 11°
2026-04-25 13:19 42.39844 -70.95509 7497 ft 97 kts 11°
2026-04-25 13:19 42.40500 -70.95299 7490 ft 97 kts 11°
2026-04-25 13:19 42.40723 -70.95229 7497 ft 97 kts 11°
2026-04-25 13:20 42.41816 -70.94880 7497 ft 97 kts 11°
2026-04-25 13:20 42.42475 -70.94671 7498 ft 97 kts 11°
2026-04-25 13:20 42.43137 -70.94464 7498 ft 98 kts 11°
2026-04-25 13:20 42.43800 -70.94258 7498 ft 98 kts 11°
2026-04-25 13:21 42.44453 -70.94054 7506 ft 97 kts 11°
2026-04-25 13:21 42.45065 -70.93861 7683 ft 84 kts 10°
2026-04-25 13:21 42.45631 -70.93676 7859 ft 84 kts 11°
2026-04-25 13:21 42.46200 -70.93488 8020 ft 84 kts 10°
2026-04-25 13:22 42.46574 -70.93363 8113 ft 84 kts 10°
2026-04-25 13:22 42.46589 -70.93358 8116 ft 84 kts 10°